sensor_id;sensor_type;location;lat;lon;timestamp;P1;durP1;ratioP1;P2;durP2;ratioP2
68718;SDS011;55696;52.138;5.444;2023-01-30T00:01:23;26.77;;;13.63;;
68718;SDS011;55696;52.138;5.444;2023-01-30T00:03:52;29.48;;;15.07;;
68718;SDS011;55696;52.138;5.444;2023-01-30T00:06:19;24.65;;;12.63;;
68718;SDS011;55696;52.138;5.444;2023-01-30T00:08:47;24.13;;;13.38;;
68718;SDS011;55696;52.138;5.444;2023-01-30T00:11:14;24.80;;;12.93;;
68718;SDS011;55696;52.138;5.444;2023-01-30T00:13:42;26.88;;;12.98;;
68718;SDS011;55696;52.138;5.444;2023-01-30T00:16:09;29.75;;;12.68;;
68718;SDS011;55696;52.138;5.444;2023-01-30T00:18:37;26.65;;;14.30;;
68718;SDS011;55696;52.138;5.444;2023-01-30T00:21:08;26.10;;;13.38;;
68718;SDS011;55696;52.138;5.444;2023-01-30T00:23:36;24.10;;;13.00;;
68718;SDS011;55696;52.138;5.444;2023-01-30T00:26:04;21.90;;;12.30;;
68718;SDS011;55696;52.138;5.444;2023-01-30T00:28:32;26.23;;;11.75;;
68718;SDS011;55696;52.138;5.444;2023-01-30T00:30:59;26.02;;;12.77;;
68718;SDS011;55696;52.138;5.444;2023-01-30T00:33:26;20.50;;;11.15;;
68718;SDS011;55696;52.138;5.444;2023-01-30T00:35:54;21.63;;;11.30;;
68718;SDS011;55696;52.138;5.444;2023-01-30T00:38:22;22.08;;;10.75;;
68718;SDS011;55696;52.138;5.444;2023-01-30T00:40:49;22.80;;;11.10;;
68718;SDS011;55696;52.138;5.444;2023-01-30T00:43:17;23.15;;;11.02;;
68718;SDS011;55696;52.138;5.444;2023-01-30T00:46:08;17.67;;;9.32;;
68718;SDS011;55696;52.138;5.444;2023-01-30T00:48:59;28.27;;;10.60;;
68718;SDS011;55696;52.138;5.444;2023-01-30T00:51:26;28.50;;;10.05;;
68718;SDS011;55696;52.138;5.444;2023-01-30T00:53:53;18.42;;;8.75;;
68718;SDS011;55696;52.138;5.444;2023-01-30T00:56:20;19.73;;;8.77;;
68718;SDS011;55696;52.138;5.444;2023-01-30T00:58:47;21.40;;;10.25;;
68718;SDS011;55696;52.138;5.444;2023-01-30T01:01:13;17.47;;;8.70;;
68718;SDS011;55696;52.138;5.444;2023-01-30T01:03:41;16.77;;;8.73;;
68718;SDS011;55696;52.138;5.444;2023-01-30T01:06:08;13.63;;;7.97;;
68718;SDS011;55696;52.138;5.444;2023-01-30T01:08:34;19.48;;;7.78;;
68718;SDS011;55696;52.138;5.444;2023-01-30T01:11:01;17.83;;;8.02;;
68718;SDS011;55696;52.138;5.444;2023-01-30T01:13:28;17.27;;;7.50;;
68718;SDS011;55696;52.138;5.444;2023-01-30T01:15:55;19.52;;;7.50;;
68718;SDS011;55696;52.138;5.444;2023-01-30T01:18:22;15.07;;;7.18;;
68718;SDS011;55696;52.138;5.444;2023-01-30T01:20:49;17.13;;;8.18;;
68718;SDS011;55696;52.138;5.444;2023-01-30T01:23:16;19.42;;;8.70;;
68718;SDS011;55696;52.138;5.444;2023-01-30T01:25:42;17.97;;;7.93;;
68718;SDS011;55696;52.138;5.444;2023-01-30T01:28:10;19.38;;;7.82;;
68718;SDS011;55696;52.138;5.444;2023-01-30T01:30:37;16.17;;;7.50;;
68718;SDS011;55696;52.138;5.444;2023-01-30T01:33:04;14.40;;;7.35;;
68718;SDS011;55696;52.138;5.444;2023-01-30T01:35:31;13.57;;;7.75;;
68718;SDS011;55696;52.138;5.444;2023-01-30T01:37:58;17.07;;;8.00;;
68718;SDS011;55696;52.138;5.444;2023-01-30T01:40:25;14.82;;;6.65;;
68718;SDS011;55696;52.138;5.444;2023-01-30T01:43:14;17.75;;;7.20;;
68718;SDS011;55696;52.138;5.444;2023-01-30T01:45:43;16.45;;;7.00;;
68718;SDS011;55696;52.138;5.444;2023-01-30T01:48:29;17.10;;;7.57;;
68718;SDS011;55696;52.138;5.444;2023-01-30T01:51:14;15.20;;;6.20;;
68718;SDS011;55696;52.138;5.444;2023-01-30T01:53:50;15.13;;;6.32;;
68718;SDS011;55696;52.138;5.444;2023-01-30T01:56:22;21.10;;;6.63;;
68718;SDS011;55696;52.138;5.444;2023-01-30T01:58:54;16.38;;;7.38;;
68718;SDS011;55696;52.138;5.444;2023-01-30T02:01:26;18.25;;;6.85;;
68718;SDS011;55696;52.138;5.444;2023-01-30T02:03:55;12.80;;;5.87;;
68718;SDS011;55696;52.138;5.444;2023-01-30T02:06:27;16.90;;;6.28;;
68718;SDS011;55696;52.138;5.444;2023-01-30T02:08:57;13.93;;;6.20;;
68718;SDS011;55696;52.138;5.444;2023-01-30T02:11:33;14.85;;;6.53;;
68718;SDS011;55696;52.138;5.444;2023-01-30T02:14:18;15.07;;;5.53;;
68718;SDS011;55696;52.138;5.444;2023-01-30T02:16:46;16.13;;;5.97;;
68718;SDS011;55696;52.138;5.444;2023-01-30T02:19:59;13.68;;;5.78;;
68718;SDS011;55696;52.138;5.444;2023-01-30T02:22:17;14.35;;;5.55;;
68718;SDS011;55696;52.138;5.444;2023-01-30T02:31:05;14.97;;;4.93;;
68718;SDS011;55696;52.138;5.444;2023-01-30T02:37:06;15.32;;;4.95;;
68718;SDS011;55696;52.138;5.444;2023-01-30T02:42:19;17.40;;;4.90;;
68718;SDS011;55696;52.138;5.444;2023-01-30T02:45:09;12.87;;;4.90;;
68718;SDS011;55696;52.138;5.444;2023-01-30T02:47:46;15.65;;;4.78;;
68718;SDS011;55696;52.138;5.444;2023-01-30T02:50:20;14.25;;;5.50;;
68718;SDS011;55696;52.138;5.444;2023-01-30T02:52:52;11.63;;;5.05;;
68718;SDS011;55696;52.138;5.444;2023-01-30T02:55:23;10.98;;;4.28;;
68718;SDS011;55696;52.138;5.444;2023-01-30T02:57:52;18.27;;;5.00;;
68718;SDS011;55696;52.138;5.444;2023-01-30T03:00:31;12.38;;;4.72;;
68718;SDS011;55696;52.138;5.444;2023-01-30T03:08:41;13.38;;;4.10;;
68718;SDS011;55696;52.138;5.444;2023-01-30T03:11:37;13.70;;;4.53;;
68718;SDS011;55696;52.138;5.444;2023-01-30T03:14:19;11.48;;;4.30;;
68718;SDS011;55696;52.138;5.444;2023-01-30T03:16:51;13.18;;;4.43;;
68718;SDS011;55696;52.138;5.444;2023-01-30T03:19:21;21.00;;;4.57;;
68718;SDS011;55696;52.138;5.444;2023-01-30T03:21:48;10.32;;;3.38;;
68718;SDS011;55696;52.138;5.444;2023-01-30T03:24:15;10.17;;;4.93;;
68718;SDS011;55696;52.138;5.444;2023-01-30T03:26:47;13.02;;;4.05;;
68718;SDS011;55696;52.138;5.444;2023-01-30T03:29:20;15.15;;;4.35;;
68718;SDS011;55696;52.138;5.444;2023-01-30T03:31:47;13.35;;;3.97;;
68718;SDS011;55696;52.138;5.444;2023-01-30T03:34:14;9.77;;;3.72;;
68718;SDS011;55696;52.138;5.444;2023-01-30T03:36:40;17.77;;;3.83;;
68718;SDS011;55696;52.138;5.444;2023-01-30T03:39:07;14.27;;;3.60;;
68718;SDS011;55696;52.138;5.444;2023-01-30T03:41:34;13.13;;;3.88;;
68718;SDS011;55696;52.138;5.444;2023-01-30T03:44:01;11.27;;;3.72;;
68718;SDS011;55696;52.138;5.444;2023-01-30T03:46:28;13.00;;;3.17;;
68718;SDS011;55696;52.138;5.444;2023-01-30T03:48:55;11.50;;;3.73;;
68718;SDS011;55696;52.138;5.444;2023-01-30T03:51:22;11.48;;;3.30;;
68718;SDS011;55696;52.138;5.444;2023-01-30T03:53:49;13.27;;;2.47;;
68718;SDS011;55696;52.138;5.444;2023-01-30T03:56:15;17.17;;;3.30;;
68718;SDS011;55696;52.138;5.444;2023-01-30T03:58:42;10.82;;;2.60;;
68718;SDS011;55696;52.138;5.444;2023-01-30T04:01:18;15.40;;;3.40;;
68718;SDS011;55696;52.138;5.444;2023-01-30T04:03:46;8.85;;;2.80;;
68718;SDS011;55696;52.138;5.444;2023-01-30T04:06:14;14.68;;;2.80;;
68718;SDS011;55696;52.138;5.444;2023-01-30T04:08:41;13.32;;;3.38;;
68718;SDS011;55696;52.138;5.444;2023-01-30T04:11:14;9.27;;;2.72;;
68718;SDS011;55696;52.138;5.444;2023-01-30T04:13:41;15.80;;;2.83;;
68718;SDS011;55696;52.138;5.444;2023-01-30T04:16:13;12.82;;;3.47;;
68718;SDS011;55696;52.138;5.444;2023-01-30T04:18:59;10.63;;;2.67;;
68718;SDS011;55696;52.138;5.444;2023-01-30T04:21:29;8.15;;;3.42;;
68718;SDS011;55696;52.138;5.444;2023-01-30T04:23:56;13.27;;;2.60;;
68718;SDS011;55696;52.138;5.444;2023-01-30T04:26:23;19.53;;;3.43;;
68718;SDS011;55696;52.138;5.444;2023-01-30T04:28:50;13.35;;;3.00;;
68718;SDS011;55696;52.138;5.444;2023-01-30T04:31:17;11.77;;;2.78;;
68718;SDS011;55696;52.138;5.444;2023-01-30T04:34:16;12.05;;;3.25;;
68718;SDS011;55696;52.138;5.444;2023-01-30T04:36:43;9.88;;;2.65;;
68718;SDS011;55696;52.138;5.444;2023-01-30T04:39:11;9.50;;;2.83;;
68718;SDS011;55696;52.138;5.444;2023-01-30T04:41:38;11.82;;;2.55;;
68718;SDS011;55696;52.138;5.444;2023-01-30T04:44:05;14.25;;;3.35;;
68718;SDS011;55696;52.138;5.444;2023-01-30T04:46:45;13.63;;;3.20;;
68718;SDS011;55696;52.138;5.444;2023-01-30T04:49:12;13.32;;;2.78;;
68718;SDS011;55696;52.138;5.444;2023-01-30T04:51:39;11.73;;;2.50;;
68718;SDS011;55696;52.138;5.444;2023-01-30T04:54:06;15.80;;;3.28;;
68718;SDS011;55696;52.138;5.444;2023-01-30T04:56:33;12.05;;;2.60;;
68718;SDS011;55696;52.138;5.444;2023-01-30T04:59:00;11.98;;;2.03;;
68718;SDS011;55696;52.138;5.444;2023-01-30T05:01:33;13.32;;;2.83;;
68718;SDS011;55696;52.138;5.444;2023-01-30T05:04:04;13.83;;;2.13;;
68718;SDS011;55696;52.138;5.444;2023-01-30T05:06:32;8.15;;;2.50;;
68718;SDS011;55696;52.138;5.444;2023-01-30T05:09:00;9.20;;;2.33;;
68718;SDS011;55696;52.138;5.444;2023-01-30T05:11:27;14.07;;;2.67;;
68718;SDS011;55696;52.138;5.444;2023-01-30T05:13:55;10.77;;;2.20;;
68718;SDS011;55696;52.138;5.444;2023-01-30T05:16:22;15.47;;;2.37;;
68718;SDS011;55696;52.138;5.444;2023-01-30T05:18:49;6.45;;;1.70;;
68718;SDS011;55696;52.138;5.444;2023-01-30T05:21:23;8.80;;;1.80;;
68718;SDS011;55696;52.138;5.444;2023-01-30T05:23:53;16.55;;;2.80;;
68718;SDS011;55696;52.138;5.444;2023-01-30T05:26:21;16.27;;;2.80;;
68718;SDS011;55696;52.138;5.444;2023-01-30T05:28:55;12.87;;;2.20;;
68718;SDS011;55696;52.138;5.444;2023-01-30T05:31:23;12.05;;;2.58;;
68718;SDS011;55696;52.138;5.444;2023-01-30T05:33:50;12.23;;;2.30;;
68718;SDS011;55696;52.138;5.444;2023-01-30T05:36:19;16.40;;;2.30;;
68718;SDS011;55696;52.138;5.444;2023-01-30T05:38:47;12.18;;;2.10;;
68718;SDS011;55696;52.138;5.444;2023-01-30T05:41:14;14.60;;;2.80;;
68718;SDS011;55696;52.138;5.444;2023-01-30T05:43:42;13.10;;;2.83;;
68718;SDS011;55696;52.138;5.444;2023-01-30T05:46:09;11.85;;;2.35;;
68718;SDS011;55696;52.138;5.444;2023-01-30T05:48:37;19.20;;;3.38;;
68718;SDS011;55696;52.138;5.444;2023-01-30T05:51:04;12.93;;;3.25;;
68718;SDS011;55696;52.138;5.444;2023-01-30T05:53:32;11.37;;;2.40;;
68718;SDS011;55696;52.138;5.444;2023-01-30T05:56:01;16.08;;;2.30;;
68718;SDS011;55696;52.138;5.444;2023-01-30T05:58:29;15.55;;;2.85;;
68718;SDS011;55696;52.138;5.444;2023-01-30T06:01:00;19.38;;;3.83;;
68718;SDS011;55696;52.138;5.444;2023-01-30T06:03:29;10.45;;;2.85;;
68718;SDS011;55696;52.138;5.444;2023-01-30T06:05:56;14.23;;;2.57;;
68718;SDS011;55696;52.138;5.444;2023-01-30T06:08:22;16.83;;;2.88;;
68718;SDS011;55696;52.138;5.444;2023-01-30T06:10:49;15.98;;;2.40;;
68718;SDS011;55696;52.138;5.444;2023-01-30T06:13:16;14.95;;;2.85;;
68718;SDS011;55696;52.138;5.444;2023-01-30T06:15:43;26.13;;;2.88;;
68718;SDS011;55696;52.138;5.444;2023-01-30T06:18:10;12.57;;;2.30;;
68718;SDS011;55696;52.138;5.444;2023-01-30T06:20:37;11.65;;;2.92;;
68718;SDS011;55696;52.138;5.444;2023-01-30T06:23:04;12.23;;;2.53;;
68718;SDS011;55696;52.138;5.444;2023-01-30T06:25:31;18.60;;;2.58;;
68718;SDS011;55696;52.138;5.444;2023-01-30T06:27:57;18.15;;;2.85;;
68718;SDS011;55696;52.138;5.444;2023-01-30T06:30:24;11.27;;;2.60;;
68718;SDS011;55696;52.138;5.444;2023-01-30T06:32:51;10.52;;;3.20;;
68718;SDS011;55696;52.138;5.444;2023-01-30T06:35:18;12.50;;;2.13;;
68718;SDS011;55696;52.138;5.444;2023-01-30T06:37:45;11.32;;;1.65;;
68718;SDS011;55696;52.138;5.444;2023-01-30T06:40:12;14.68;;;2.03;;
68718;SDS011;55696;52.138;5.444;2023-01-30T06:42:45;14.50;;;2.47;;
68718;SDS011;55696;52.138;5.444;2023-01-30T06:45:13;13.00;;;1.80;;
68718;SDS011;55696;52.138;5.444;2023-01-30T06:47:46;20.92;;;2.97;;
68718;SDS011;55696;52.138;5.444;2023-01-30T06:50:17;15.73;;;2.53;;
68718;SDS011;55696;52.138;5.444;2023-01-30T06:52:47;19.50;;;2.90;;
68718;SDS011;55696;52.138;5.444;2023-01-30T06:55:16;22.47;;;2.73;;
68718;SDS011;55696;52.138;5.444;2023-01-30T06:57:45;8.77;;;2.15;;
68718;SDS011;55696;52.138;5.444;2023-01-30T07:00:13;13.00;;;2.58;;
68718;SDS011;55696;52.138;5.444;2023-01-30T07:02:45;19.45;;;3.00;;
68718;SDS011;55696;52.138;5.444;2023-01-30T07:05:12;21.88;;;3.13;;
68718;SDS011;55696;52.138;5.444;2023-01-30T07:07:39;24.83;;;3.40;;
68718;SDS011;55696;52.138;5.444;2023-01-30T07:10:06;27.60;;;3.33;;
68718;SDS011;55696;52.138;5.444;2023-01-30T07:12:34;18.50;;;2.53;;
68718;SDS011;55696;52.138;5.444;2023-01-30T07:15:02;21.00;;;3.40;;
68718;SDS011;55696;52.138;5.444;2023-01-30T07:17:30;18.15;;;3.00;;
68718;SDS011;55696;52.138;5.444;2023-01-30T07:19:58;22.30;;;3.13;;
68718;SDS011;55696;52.138;5.444;2023-01-30T07:22:24;18.02;;;2.83;;
68718;SDS011;55696;52.138;5.444;2023-01-30T07:24:51;19.50;;;3.17;;
68718;SDS011;55696;52.138;5.444;2023-01-30T07:27:18;15.80;;;3.28;;
68718;SDS011;55696;52.138;5.444;2023-01-30T07:29:45;14.07;;;2.83;;
68718;SDS011;55696;52.138;5.444;2023-01-30T07:32:13;14.47;;;2.90;;
68718;SDS011;55696;52.138;5.444;2023-01-30T07:34:44;14.95;;;2.70;;
68718;SDS011;55696;52.138;5.444;2023-01-30T07:37:12;11.73;;;2.10;;
68718;SDS011;55696;52.138;5.444;2023-01-30T07:39:39;16.50;;;2.95;;
68718;SDS011;55696;52.138;5.444;2023-01-30T07:42:06;15.65;;;2.80;;
68718;SDS011;55696;52.138;5.444;2023-01-30T07:44:33;16.10;;;2.60;;
68718;SDS011;55696;52.138;5.444;2023-01-30T07:47:00;14.65;;;2.70;;
68718;SDS011;55696;52.138;5.444;2023-01-30T07:49:27;13.93;;;2.88;;
68718;SDS011;55696;52.138;5.444;2023-01-30T07:51:54;19.23;;;3.35;;
68718;SDS011;55696;52.138;5.444;2023-01-30T07:54:21;18.33;;;3.25;;
68718;SDS011;55696;52.138;5.444;2023-01-30T07:56:48;20.53;;;2.43;;
68718;SDS011;55696;52.138;5.444;2023-01-30T07:59:14;22.73;;;2.53;;
68718;SDS011;55696;52.138;5.444;2023-01-30T08:01:41;19.52;;;3.10;;
68718;SDS011;55696;52.138;5.444;2023-01-30T08:04:08;16.85;;;2.80;;
68718;SDS011;55696;52.138;5.444;2023-01-30T08:06:35;22.10;;;3.03;;
68718;SDS011;55696;52.138;5.444;2023-01-30T08:09:04;19.27;;;3.00;;
68718;SDS011;55696;52.138;5.444;2023-01-30T08:11:32;19.08;;;2.60;;
68718;SDS011;55696;52.138;5.444;2023-01-30T08:13:59;15.45;;;2.65;;
68718;SDS011;55696;52.138;5.444;2023-01-30T08:16:26;16.30;;;2.63;;
68718;SDS011;55696;52.138;5.444;2023-01-30T08:18:53;19.20;;;3.42;;
68718;SDS011;55696;52.138;5.444;2023-01-30T08:21:20;23.80;;;2.60;;
68718;SDS011;55696;52.138;5.444;2023-01-30T08:23:46;17.45;;;2.88;;
68718;SDS011;55696;52.138;5.444;2023-01-30T08:26:13;21.58;;;2.88;;
68718;SDS011;55696;52.138;5.444;2023-01-30T08:28:40;18.65;;;2.60;;
68718;SDS011;55696;52.138;5.444;2023-01-30T08:31:08;16.27;;;3.10;;
68718;SDS011;55696;52.138;5.444;2023-01-30T08:33:36;18.23;;;2.73;;
68718;SDS011;55696;52.138;5.444;2023-01-30T08:36:03;16.70;;;2.75;;
68718;SDS011;55696;52.138;5.444;2023-01-30T08:38:31;14.85;;;2.40;;
68718;SDS011;55696;52.138;5.444;2023-01-30T08:40:58;22.17;;;3.33;;
68718;SDS011;55696;52.138;5.444;2023-01-30T08:43:26;11.02;;;2.50;;
68718;SDS011;55696;52.138;5.444;2023-01-30T08:45:53;17.40;;;2.93;;
68718;SDS011;55696;52.138;5.444;2023-01-30T08:48:21;15.20;;;2.53;;
68718;SDS011;55696;52.138;5.444;2023-01-30T08:50:52;18.80;;;2.60;;
68718;SDS011;55696;52.138;5.444;2023-01-30T08:53:19;17.85;;;2.90;;
68718;SDS011;55696;52.138;5.444;2023-01-30T08:55:50;23.38;;;3.70;;
68718;SDS011;55696;52.138;5.444;2023-01-30T08:58:19;18.33;;;3.83;;
68718;SDS011;55696;52.138;5.444;2023-01-30T09:00:46;22.40;;;3.22;;
68718;SDS011;55696;52.138;5.444;2023-01-30T09:03:15;21.75;;;3.10;;
68718;SDS011;55696;52.138;5.444;2023-01-30T09:05:43;13.77;;;2.28;;
68718;SDS011;55696;52.138;5.444;2023-01-30T09:08:10;17.48;;;2.55;;
68718;SDS011;55696;52.138;5.444;2023-01-30T09:10:38;12.93;;;2.87;;
68718;SDS011;55696;52.138;5.444;2023-01-30T09:13:07;11.52;;;2.35;;
68718;SDS011;55696;52.138;5.444;2023-01-30T09:15:35;18.30;;;3.00;;
68718;SDS011;55696;52.138;5.444;2023-01-30T09:18:01;14.70;;;2.38;;
68718;SDS011;55696;52.138;5.444;2023-01-30T09:20:30;23.75;;;3.47;;
68718;SDS011;55696;52.138;5.444;2023-01-30T09:22:57;18.63;;;3.57;;
68718;SDS011;55696;52.138;5.444;2023-01-30T09:25:23;16.92;;;3.38;;
68718;SDS011;55696;52.138;5.444;2023-01-30T09:27:50;16.17;;;2.60;;
68718;SDS011;55696;52.138;5.444;2023-01-30T09:30:17;14.55;;;3.25;;
68718;SDS011;55696;52.138;5.444;2023-01-30T09:32:45;25.30;;;4.15;;
68718;SDS011;55696;52.138;5.444;2023-01-30T09:35:12;14.93;;;2.60;;
68718;SDS011;55696;52.138;5.444;2023-01-30T09:37:45;19.45;;;3.15;;
68718;SDS011;55696;52.138;5.444;2023-01-30T09:40:26;24.63;;;3.72;;
68718;SDS011;55696;52.138;5.444;2023-01-30T09:42:58;15.07;;;2.45;;
68718;SDS011;55696;52.138;5.444;2023-01-30T09:45:38;14.77;;;2.92;;
68718;SDS011;55696;52.138;5.444;2023-01-30T09:50:56;21.75;;;2.97;;
68718;SDS011;55696;52.138;5.444;2023-01-30T09:56:03;15.88;;;2.50;;
68718;SDS011;55696;52.138;5.444;2023-01-30T09:58:40;14.77;;;2.63;;
68718;SDS011;55696;52.138;5.444;2023-01-30T10:01:16;16.73;;;2.73;;
68718;SDS011;55696;52.138;5.444;2023-01-30T10:04:22;19.13;;;2.50;;
68718;SDS011;55696;52.138;5.444;2023-01-30T10:18:31;25.77;;;3.13;;
68718;SDS011;55696;52.138;5.444;2023-01-30T10:27:14;17.30;;;3.38;;
68718;SDS011;55696;52.138;5.444;2023-01-30T10:29:44;16.83;;;3.33;;
68718;SDS011;55696;52.138;5.444;2023-01-30T10:32:29;15.20;;;3.90;;
68718;SDS011;55696;52.138;5.444;2023-01-30T10:35:05;16.98;;;2.40;;
68718;SDS011;55696;52.138;5.444;2023-01-30T10:37:58;14.25;;;3.45;;
68718;SDS011;55696;52.138;5.444;2023-01-30T10:41:00;13.80;;;2.30;;
68718;SDS011;55696;52.138;5.444;2023-01-30T10:43:40;19.37;;;2.73;;
68718;SDS011;55696;52.138;5.444;2023-01-30T10:48:51;18.05;;;3.03;;
68718;SDS011;55696;52.138;5.444;2023-01-30T10:54:34;19.67;;;2.72;;
68718;SDS011;55696;52.138;5.444;2023-01-30T10:59:57;13.73;;;3.30;;
68718;SDS011;55696;52.138;5.444;2023-01-30T11:02:34;18.55;;;2.78;;
68718;SDS011;55696;52.138;5.444;2023-01-30T11:05:14;19.90;;;3.63;;
68718;SDS011;55696;52.138;5.444;2023-01-30T11:07:44;20.65;;;3.33;;
68718;SDS011;55696;52.138;5.444;2023-01-30T11:10:14;14.80;;;2.50;;
68718;SDS011;55696;52.138;5.444;2023-01-30T11:12:44;21.33;;;3.40;;
68718;SDS011;55696;52.138;5.444;2023-01-30T11:15:11;20.58;;;3.15;;
68718;SDS011;55696;52.138;5.444;2023-01-30T11:17:39;14.93;;;3.33;;
68718;SDS011;55696;52.138;5.444;2023-01-30T11:20:12;20.40;;;3.42;;
68718;SDS011;55696;52.138;5.444;2023-01-30T11:22:44;23.80;;;4.23;;
68718;SDS011;55696;52.138;5.444;2023-01-30T11:25:16;17.90;;;3.25;;
68718;SDS011;55696;52.138;5.444;2023-01-30T11:27:56;14.88;;;2.85;;
68718;SDS011;55696;52.138;5.444;2023-01-30T11:30:28;17.58;;;3.03;;
68718;SDS011;55696;52.138;5.444;2023-01-30T11:33:18;19.25;;;3.08;;
68718;SDS011;55696;52.138;5.444;2023-01-30T11:35:54;13.47;;;2.87;;
68718;SDS011;55696;52.138;5.444;2023-01-30T11:38:27;19.70;;;2.95;;
68718;SDS011;55696;52.138;5.444;2023-01-30T11:43:35;23.98;;;4.35;;
68718;SDS011;55696;52.138;5.444;2023-01-30T11:46:05;23.30;;;4.28;;
68718;SDS011;55696;52.138;5.444;2023-01-30T11:48:33;23.83;;;3.40;;
68718;SDS011;55696;52.138;5.444;2023-01-30T11:51:32;16.60;;;2.85;;
68718;SDS011;55696;52.138;5.444;2023-01-30T11:54:03;19.75;;;3.53;;
68718;SDS011;55696;52.138;5.444;2023-01-30T11:56:52;15.52;;;2.15;;
68718;SDS011;55696;52.138;5.444;2023-01-30T11:59:35;17.63;;;3.78;;
68718;SDS011;55696;52.138;5.444;2023-01-30T12:02:15;17.87;;;3.50;;
68718;SDS011;55696;52.138;5.444;2023-01-30T12:04:44;16.90;;;3.30;;
68718;SDS011;55696;52.138;5.444;2023-01-30T12:07:45;18.15;;;2.97;;
68718;SDS011;55696;52.138;5.444;2023-01-30T12:12:50;12.38;;;2.47;;
68718;SDS011;55696;52.138;5.444;2023-01-30T12:15:24;15.93;;;3.80;;
68718;SDS011;55696;52.138;5.444;2023-01-30T12:18:00;16.60;;;2.50;;
68718;SDS011;55696;52.138;5.444;2023-01-30T12:20:41;20.80;;;3.60;;
68718;SDS011;55696;52.138;5.444;2023-01-30T12:23:31;15.55;;;3.15;;
68718;SDS011;55696;52.138;5.444;2023-01-30T12:26:11;14.55;;;3.15;;
68718;SDS011;55696;52.138;5.444;2023-01-30T12:31:36;12.35;;;2.53;;
68718;SDS011;55696;52.138;5.444;2023-01-30T12:34:08;12.00;;;2.75;;
68718;SDS011;55696;52.138;5.444;2023-01-30T12:59:11;13.45;;;1.88;;
68718;SDS011;55696;52.138;5.444;2023-01-30T13:05:21;17.83;;;3.30;;
68718;SDS011;55696;52.138;5.444;2023-01-30T13:15:40;10.40;;;1.95;;
68718;SDS011;55696;52.138;5.444;2023-01-30T13:18:35;19.08;;;2.92;;
68718;SDS011;55696;52.138;5.444;2023-01-30T13:26:50;20.73;;;2.85;;
68718;SDS011;55696;52.138;5.444;2023-01-30T13:29:29;17.55;;;2.58;;
68718;SDS011;55696;52.138;5.444;2023-01-30T13:32:01;18.70;;;2.90;;
68718;SDS011;55696;52.138;5.444;2023-01-30T13:34:38;12.93;;;3.15;;
68718;SDS011;55696;52.138;5.444;2023-01-30T13:37:16;18.43;;;3.03;;
68718;SDS011;55696;52.138;5.444;2023-01-30T13:39:49;18.55;;;2.67;;
68718;SDS011;55696;52.138;5.444;2023-01-30T13:45:03;22.58;;;3.28;;
68718;SDS011;55696;52.138;5.444;2023-01-30T13:47:38;20.88;;;3.17;;
68718;SDS011;55696;52.138;5.444;2023-01-30T13:53:18;21.33;;;3.38;;
68718;SDS011;55696;52.138;5.444;2023-01-30T13:56:01;16.63;;;3.35;;
68718;SDS011;55696;52.138;5.444;2023-01-30T14:01:20;15.82;;;3.10;;
68718;SDS011;55696;52.138;5.444;2023-01-30T14:03:48;18.27;;;3.10;;
68718;SDS011;55696;52.138;5.444;2023-01-30T14:09:00;12.70;;;2.70;;
68718;SDS011;55696;52.138;5.444;2023-01-30T14:11:32;17.67;;;3.38;;
68718;SDS011;55696;52.138;5.444;2023-01-30T14:14:04;21.92;;;3.05;;
68718;SDS011;55696;52.138;5.444;2023-01-30T14:16:53;15.83;;;2.90;;
68718;SDS011;55696;52.138;5.444;2023-01-30T14:19:32;21.63;;;3.95;;
68718;SDS011;55696;52.138;5.444;2023-01-30T14:22:19;15.10;;;2.70;;
68718;SDS011;55696;52.138;5.444;2023-01-30T14:33:30;14.68;;;3.67;;
68718;SDS011;55696;52.138;5.444;2023-01-30T14:38:26;12.82;;;2.40;;
68718;SDS011;55696;52.138;5.444;2023-01-30T14:48:44;16.65;;;3.25;;
68718;SDS011;55696;52.138;5.444;2023-01-30T14:51:20;17.67;;;3.67;;
68718;SDS011;55696;52.138;5.444;2023-01-30T15:02:45;22.92;;;3.53;;
68718;SDS011;55696;52.138;5.444;2023-01-30T15:04:40;15.55;;;2.33;;
68718;SDS011;55696;52.138;5.444;2023-01-30T15:13:15;20.45;;;3.22;;
68718;SDS011;55696;52.138;5.444;2023-01-30T15:32:48;16.23;;;2.95;;
68718;SDS011;55696;52.138;5.444;2023-01-30T15:48:40;18.98;;;3.22;;
68718;SDS011;55696;52.138;5.444;2023-01-30T15:51:28;23.33;;;3.20;;
68718;SDS011;55696;52.138;5.444;2023-01-30T15:53:57;18.92;;;3.40;;
68718;SDS011;55696;52.138;5.444;2023-01-30T15:56:28;13.30;;;2.50;;
68718;SDS011;55696;52.138;5.444;2023-01-30T15:58:57;18.20;;;3.65;;
68718;SDS011;55696;52.138;5.444;2023-01-30T16:01:26;25.70;;;4.47;;
68718;SDS011;55696;52.138;5.444;2023-01-30T16:03:53;20.50;;;3.27;;
68718;SDS011;55696;52.138;5.444;2023-01-30T16:06:30;14.50;;;3.30;;
68718;SDS011;55696;52.138;5.444;2023-01-30T16:09:02;16.95;;;2.63;;
68718;SDS011;55696;52.138;5.444;2023-01-30T16:11:46;19.00;;;3.45;;
68718;SDS011;55696;52.138;5.444;2023-01-30T16:14:14;16.70;;;2.30;;
68718;SDS011;55696;52.138;5.444;2023-01-30T16:16:50;15.97;;;2.30;;
68718;SDS011;55696;52.138;5.444;2023-01-30T16:19:26;16.85;;;2.70;;
68718;SDS011;55696;52.138;5.444;2023-01-30T16:21:57;12.25;;;2.63;;
68718;SDS011;55696;52.138;5.444;2023-01-30T16:24:28;15.85;;;2.85;;
68718;SDS011;55696;52.138;5.444;2023-01-30T16:26:58;13.63;;;2.10;;
68718;SDS011;55696;52.138;5.444;2023-01-30T16:29:28;23.57;;;3.17;;
68718;SDS011;55696;52.138;5.444;2023-01-30T16:31:57;18.00;;;3.60;;
68718;SDS011;55696;52.138;5.444;2023-01-30T16:34:36;23.35;;;3.58;;
68718;SDS011;55696;52.138;5.444;2023-01-30T16:37:05;20.33;;;3.75;;
68718;SDS011;55696;52.138;5.444;2023-01-30T16:39:34;14.65;;;3.55;;
68718;SDS011;55696;52.138;5.444;2023-01-30T16:45:40;22.90;;;3.78;;
68718;SDS011;55696;52.138;5.444;2023-01-30T16:50:42;17.10;;;2.42;;
68718;SDS011;55696;52.138;5.444;2023-01-30T16:53:14;21.30;;;3.40;;
68718;SDS011;55696;52.138;5.444;2023-01-30T16:55:53;16.70;;;3.10;;
68718;SDS011;55696;52.138;5.444;2023-01-30T16:58:21;18.83;;;3.08;;
68718;SDS011;55696;52.138;5.444;2023-01-30T17:00:49;17.88;;;3.00;;
68718;SDS011;55696;52.138;5.444;2023-01-30T17:03:27;10.75;;;2.70;;
68718;SDS011;55696;52.138;5.444;2023-01-30T17:05:59;19.25;;;2.78;;
68718;SDS011;55696;52.138;5.444;2023-01-30T17:11:01;17.35;;;2.60;;
68718;SDS011;55696;52.138;5.444;2023-01-30T17:13:30;30.55;;;4.53;;
68718;SDS011;55696;52.138;5.444;2023-01-30T17:18:53;22.42;;;3.53;;
68718;SDS011;55696;52.138;5.444;2023-01-30T17:21:22;22.37;;;3.50;;
68718;SDS011;55696;52.138;5.444;2023-01-30T17:23:55;17.98;;;3.40;;
68718;SDS011;55696;52.138;5.444;2023-01-30T17:26:25;13.93;;;2.95;;
68718;SDS011;55696;52.138;5.444;2023-01-30T17:28:53;27.10;;;3.83;;
68718;SDS011;55696;52.138;5.444;2023-01-30T17:31:20;15.35;;;3.08;;
68718;SDS011;55696;52.138;5.444;2023-01-30T17:33:47;24.57;;;3.83;;
68718;SDS011;55696;52.138;5.444;2023-01-30T17:36:22;20.27;;;3.90;;
68718;SDS011;55696;52.138;5.444;2023-01-30T17:38:52;23.63;;;4.45;;
68718;SDS011;55696;52.138;5.444;2023-01-30T17:41:23;22.33;;;3.92;;
68718;SDS011;55696;52.138;5.444;2023-01-30T17:43:53;22.35;;;4.20;;
68718;SDS011;55696;52.138;5.444;2023-01-30T17:46:29;11.87;;;3.00;;
68718;SDS011;55696;52.138;5.444;2023-01-30T17:49:05;22.70;;;4.65;;
68718;SDS011;55696;52.138;5.444;2023-01-30T17:51:36;17.70;;;3.30;;
68718;SDS011;55696;52.138;5.444;2023-01-30T17:54:03;17.60;;;2.85;;
68718;SDS011;55696;52.138;5.444;2023-01-30T17:56:31;25.80;;;3.88;;
68718;SDS011;55696;52.138;5.444;2023-01-30T17:59:09;18.20;;;3.70;;
68718;SDS011;55696;52.138;5.444;2023-01-30T18:01:42;22.23;;;2.75;;